createdAt,value
2022-09-03T08:07:55.771Z,54.811001
2022-09-03T08:09:05.765Z,54.613998
2022-09-03T08:10:14.019Z,54.702999
2022-09-03T08:11:23.044Z,54.943001
2022-09-03T08:12:32.691Z,54.924999
2022-09-03T08:13:41.355Z,54.752998
2022-09-03T08:14:50.226Z,54.613998
2022-09-03T08:15:59.877Z,54.396
2022-09-03T08:17:08.561Z,54.257999
2022-09-03T08:18:17.149Z,54.056
2022-09-03T08:19:26.735Z,53.976002
2022-09-03T08:20:35.322Z,54.061001
2022-09-03T08:21:44.943Z,54.054001
2022-09-03T08:22:52.502Z,54.106998
2022-09-03T08:24:00.090Z,54.154999
2022-09-03T08:25:11.771Z,54.167
2022-09-03T08:26:19.383Z,54.183998
2022-09-03T08:27:28.054Z,54.226002
2022-09-03T08:28:37.886Z,54.203999
2022-09-03T08:29:47.499Z,54.176998
2022-09-03T08:30:56.050Z,54.146999
2022-09-03T08:32:05.314Z,54.140999
2022-09-03T08:33:11.342Z,53.993
2022-09-03T08:34:20.833Z,53.897999
2022-09-03T08:35:29.461Z,54.042999
2022-09-03T08:36:37.997Z,54.145
2022-09-03T08:37:46.751Z,54.091999
2022-09-03T08:38:55.401Z,53.959999
2022-09-03T08:40:05.009Z,53.912998
2022-09-03T08:41:12.547Z,53.817001
2022-09-03T08:42:21.208Z,53.668999
2022-09-03T08:43:30.786Z,53.573002
2022-09-03T08:44:39.487Z,53.523998
2022-09-03T08:45:48.251Z,53.465
2022-09-03T08:46:57.907Z,53.387001
2022-09-03T08:48:06.577Z,53.301998
2022-09-03T08:49:16.251Z,53.285999
2022-09-03T08:50:25.008Z,53.479
2022-09-03T08:51:32.476Z,53.558998
2022-09-03T08:52:42.076Z,53.625
2022-09-03T08:53:50.838Z,53.671001
2022-09-03T08:55:00.461Z,53.634998
2022-09-03T08:56:09.067Z,53.529999
2022-09-03T08:57:17.686Z,53.410999
2022-09-03T08:58:26.378Z,53.327
2022-09-03T08:59:35.970Z,53.300999
2022-09-03T09:00:45.778Z,53.224998
2022-09-03T09:01:54.823Z,53.492001
2022-09-03T09:03:02.982Z,53.541
2022-09-03T09:04:11.515Z,53.425999
2022-09-03T09:05:20.176Z,53.344002
2022-09-03T09:06:30.767Z,53.198002
2022-09-03T09:07:39.469Z,53.192001
2022-09-03T09:08:49.175Z,53.139
2022-09-03T09:09:58.860Z,52.973999
2022-09-03T09:11:07.507Z,52.847
2022-09-03T09:12:16.947Z,52.735001
2022-09-03T09:13:26.534Z,52.616001
2022-09-03T09:14:35.115Z,52.563
2022-09-03T09:15:43.753Z,52.438999
2022-09-03T09:16:53.471Z,52.372002
2022-09-03T09:18:02.152Z,52.415001
2022-09-03T09:19:10.925Z,52.362999
2022-09-03T09:20:18.631Z,52.526001
2022-09-03T09:21:28.117Z,52.598999
2022-09-03T09:22:37.679Z,52.597
2022-09-03T09:23:46.413Z,52.709
2022-09-03T09:24:54.999Z,52.715
2022-09-03T09:26:03.562Z,52.764
2022-09-03T09:27:15.999Z,52.734001
2022-09-03T09:28:24.307Z,52.923
2022-09-03T09:29:33.910Z,53.091
2022-09-03T09:30:42.590Z,53.113998
2022-09-03T09:31:52.210Z,52.958
2022-09-03T09:33:01.775Z,52.888
2022-09-03T09:34:10.369Z,52.817001
2022-09-03T09:35:18.943Z,52.762001
2022-09-03T09:36:27.581Z,52.799
2022-09-03T09:37:37.151Z,52.846001
2022-09-03T09:38:44.773Z,52.863998
2022-09-03T09:39:53.437Z,52.789001
2022-09-03T09:41:02.998Z,52.696999
2022-09-03T09:42:11.564Z,52.716
2022-09-03T09:43:20.510Z,52.853001
2022-09-03T09:44:30.278Z,52.791
2022-09-03T09:45:38.878Z,52.764999
2022-09-03T09:46:51.421Z,52.740002
2022-09-03T09:47:59.038Z,52.703999
2022-09-03T09:49:06.623Z,52.639
2022-09-03T09:50:20.221Z,52.583
2022-09-03T09:51:26.757Z,52.459
2022-09-03T09:52:35.490Z,52.327999
2022-09-03T09:53:44.118Z,52.297001
2022-09-03T09:54:53.683Z,52.314999
2022-09-03T09:56:03.253Z,52.271
2022-09-03T09:57:11.876Z,52.231998
2022-09-03T09:58:20.294Z,52.217999
2022-09-03T09:59:29.869Z,52.203999
2022-09-03T10:00:38.398Z,52.148998
2022-09-03T10:01:47.052Z,52.129002
2022-09-03T10:02:55.833Z,52.085999
2022-09-03T10:04:05.409Z,52.033001
2022-09-03T10:05:15.202Z,51.966
2022-09-03T10:06:22.946Z,51.966
2022-09-03T10:07:31.533Z,51.936001
2022-09-03T10:08:41.101Z,51.948002
2022-09-03T10:09:49.626Z,51.928001
2022-09-03T10:10:59.191Z,51.931999
2022-09-03T10:12:07.776Z,51.883999
2022-09-03T10:13:16.426Z,51.845001
2022-09-03T10:14:26.193Z,51.880001
2022-09-03T10:15:34.761Z,51.917999
2022-09-03T10:16:42.404Z,51.903999
2022-09-03T10:17:51.982Z,51.848
2022-09-03T10:19:00.542Z,51.82
2022-09-03T10:20:09.091Z,51.853001
2022-09-03T10:21:17.693Z,51.82
2022-09-03T10:22:26.361Z,51.75
2022-09-03T10:23:37.027Z,51.695
2022-09-03T10:24:45.614Z,51.583
2022-09-03T10:25:54.406Z,51.445
2022-09-03T10:27:04.015Z,51.411999
2022-09-03T10:28:13.379Z,51.306999
2022-09-03T10:29:22.192Z,51.321999
2022-09-03T10:30:30.728Z,51.234001
2022-09-03T10:31:39.303Z,51.111
2022-09-03T10:32:48.936Z,50.952999
2022-09-03T10:33:57.523Z,50.935001
2022-09-03T10:35:06.073Z,50.965
2022-09-03T10:36:15.704Z,51.028
2022-09-03T10:37:24.375Z,51.015999
2022-09-03T10:38:33.000Z,50.987999
2022-09-03T10:39:42.936Z,50.945
2022-09-03T10:40:51.224Z,50.852001
2022-09-03T10:42:01.035Z,50.852001
2022-09-03T10:43:08.596Z,50.793999
2022-09-03T10:44:16.134Z,50.759998
2022-09-03T10:45:24.776Z,50.810001
2022-09-03T10:46:33.448Z,50.825001
2022-09-03T10:47:42.981Z,50.277
2022-09-03T10:48:51.629Z,50.400002
2022-09-03T10:50:00.326Z,50.553001
2022-09-03T10:51:10.010Z,50.652
2022-09-03T10:52:19.593Z,50.576
2022-09-03T10:53:29.170Z,50.317001
2022-09-03T10:54:37.767Z,50.125999
2022-09-03T10:55:46.352Z,49.891998
2022-09-03T10:56:55.944Z,49.917999
2022-09-03T10:58:04.541Z,49.709
2022-09-03T10:59:13.192Z,49.685001
2022-09-03T11:00:21.733Z,49.396
2022-09-03T11:01:29.471Z,49.685001
2022-09-03T11:02:39.149Z,49.880001
2022-09-03T11:03:46.716Z,49.955002
2022-09-03T11:04:55.372Z,49.994999
2022-09-03T11:06:05.052Z,50.032001
2022-09-03T11:07:13.705Z,50.07
2022-09-03T11:08:22.452Z,50.108002
2022-09-03T11:09:31.948Z,50.123001
2022-09-03T11:10:40.769Z,50.129002
2022-09-03T11:11:50.292Z,50.106998
2022-09-03T11:12:57.881Z,50.101002
2022-09-03T11:14:07.447Z,50.111
2022-09-03T11:15:17.080Z,50.113998
2022-09-03T11:16:25.866Z,50.095001
2022-09-03T11:17:34.368Z,50.047001
2022-09-03T11:18:43.117Z,49.978001
2022-09-03T11:19:52.786Z,50.014999
2022-09-03T11:21:02.417Z,50.001999
2022-09-03T11:22:11.943Z,49.902
2022-09-03T11:23:21.547Z,49.931999
2022-09-03T11:24:32.139Z,50.013
2022-09-03T11:25:40.952Z,50.019001
2022-09-03T11:26:49.532Z,50.035
2022-09-03T11:27:58.107Z,50.022999
2022-09-03T11:29:06.742Z,50.025002
2022-09-03T11:30:16.399Z,49.983002
2022-09-03T11:31:25.016Z,49.983002
2022-09-03T11:32:33.561Z,50.029999
2022-09-03T11:33:43.184Z,50.060001
2022-09-03T11:34:52.135Z,50.077999
2022-09-03T11:36:01.711Z,50.102001
2022-09-03T11:37:10.445Z,50.125
2022-09-03T11:38:20.104Z,50.154999
2022-09-03T11:39:29.752Z,50.162998
2022-09-03T11:40:38.313Z,50.181
2022-09-03T11:41:46.030Z,50.23
2022-09-03T11:42:55.636Z,50.254002
2022-09-03T11:44:04.717Z,50.254002
2022-09-03T11:45:12.887Z,50.311001
2022-09-03T11:46:22.630Z,50.317001
2022-09-03T11:47:31.309Z,50.356998
2022-09-03T11:48:41.070Z,50.369999
2022-09-03T11:49:48.640Z,50.369999
2022-09-03T11:50:56.342Z,50.363998
2022-09-03T11:52:06.009Z,50.380001
2022-09-03T11:53:15.798Z,50.386002
2022-09-03T11:54:24.519Z,50.403999
2022-09-03T11:55:37.773Z,50.354
2022-09-03T11:56:41.655Z,50.363998
2022-09-03T11:57:51.209Z,50.369999
